sensor_id;sensor_type;location;lat;lon;timestamp;pressure;altitude;pressure_sealevel;temperature;humidity
79692;BME280;69158;55.592;37.610;2023-04-25T00:02:00;99129.44;;;12.72;40.97
79692;BME280;69158;55.592;37.610;2023-04-25T00:04:46;99133.06;;;12.65;41.45
79692;BME280;69158;55.592;37.610;2023-04-25T00:07:34;99130.22;;;12.73;40.96
79692;BME280;69158;55.592;37.610;2023-04-25T00:10:20;99134.00;;;12.90;40.80
79692;BME280;69158;55.592;37.610;2023-04-25T00:13:06;99116.81;;;12.88;40.80
79692;BME280;69158;55.592;37.610;2023-04-25T00:15:53;99097.25;;;12.57;41.25
79692;BME280;69158;55.592;37.610;2023-04-25T00:18:39;99132.59;;;12.88;41.90
79692;BME280;69158;55.592;37.610;2023-04-25T00:21:26;99104.44;;;13.39;38.07
79692;BME280;69158;55.592;37.610;2023-04-25T00:24:12;99111.31;;;13.40;40.76
79692;BME280;69158;55.592;37.610;2023-04-25T00:26:58;99129.78;;;13.40;40.90
79692;BME280;69158;55.592;37.610;2023-04-25T00:29:44;99123.31;;;13.36;41.85
79692;BME280;69158;55.592;37.610;2023-04-25T00:32:30;99120.19;;;13.01;42.84
79692;BME280;69158;55.592;37.610;2023-04-25T00:35:16;99142.25;;;13.13;41.58
79692;BME280;69158;55.592;37.610;2023-04-25T00:38:02;99117.84;;;12.80;42.92
79692;BME280;69158;55.592;37.610;2023-04-25T00:40:48;99133.25;;;12.70;43.53
79692;BME280;69158;55.592;37.610;2023-04-25T00:43:36;99132.06;;;12.72;43.77
79692;BME280;69158;55.592;37.610;2023-04-25T00:46:22;99118.31;;;12.57;43.76
79692;BME280;69158;55.592;37.610;2023-04-25T00:49:08;99110.03;;;12.54;43.76
79692;BME280;69158;55.592;37.610;2023-04-25T00:51:54;99113.84;;;12.51;43.92
79692;BME280;69158;55.592;37.610;2023-04-25T00:54:40;99118.31;;;12.57;44.56
79692;BME280;69158;55.592;37.610;2023-04-25T00:57:26;99111.88;;;12.40;44.20
79692;BME280;69158;55.592;37.610;2023-04-25T01:00:14;99121.97;;;12.43;44.50
79692;BME280;69158;55.592;37.610;2023-04-25T01:03:00;99124.41;;;12.45;44.12
79692;BME280;69158;55.592;37.610;2023-04-25T01:05:49;99122.63;;;12.32;44.72
79692;BME280;69158;55.592;37.610;2023-04-25T01:08:37;99121.59;;;12.26;45.42
79692;BME280;69158;55.592;37.610;2023-04-25T01:11:23;99119.38;;;12.23;45.13
79692;BME280;69158;55.592;37.610;2023-04-25T01:14:09;99098.16;;;12.12;45.06
79692;BME280;69158;55.592;37.610;2023-04-25T01:16:55;99106.41;;;12.35;44.75
79692;BME280;69158;55.592;37.610;2023-04-25T01:19:41;99108.88;;;12.23;45.17
79692;BME280;69158;55.592;37.610;2023-04-25T01:22:28;99103.41;;;12.18;45.09
79692;BME280;69158;55.592;37.610;2023-04-25T01:25:14;99091.28;;;12.11;45.19
79692;BME280;69158;55.592;37.610;2023-04-25T01:28:01;99094.09;;;12.16;44.90
79692;BME280;69158;55.592;37.610;2023-04-25T01:30:49;99093.66;;;12.25;45.33
79692;BME280;69158;55.592;37.610;2023-04-25T01:33:37;99097.09;;;12.26;45.64
79692;BME280;69158;55.592;37.610;2023-04-25T01:36:23;99061.31;;;12.12;44.97
79692;BME280;69158;55.592;37.610;2023-04-25T01:39:09;99095.88;;;12.42;44.61
79692;BME280;69158;55.592;37.610;2023-04-25T01:41:55;99098.72;;;12.47;44.47
79692;BME280;69158;55.592;37.610;2023-04-25T01:44:41;99095.66;;;12.50;44.71
79692;BME280;69158;55.592;37.610;2023-04-25T01:47:27;99061.06;;;12.40;45.13
79692;BME280;69158;55.592;37.610;2023-04-25T01:50:15;99091.78;;;12.59;44.27
79692;BME280;69158;55.592;37.610;2023-04-25T01:53:01;99090.13;;;12.64;44.20
79692;BME280;69158;55.592;37.610;2023-04-25T01:55:47;99082.81;;;12.73;44.19
79692;BME280;69158;55.592;37.610;2023-04-25T01:58:34;99082.41;;;12.76;44.12
79692;BME280;69158;55.592;37.610;2023-04-25T02:01:19;99076.91;;;12.78;44.04
79692;BME280;69158;55.592;37.610;2023-04-25T02:04:05;99084.44;;;12.81;43.92
79692;BME280;69158;55.592;37.610;2023-04-25T02:06:51;99082.09;;;13.04;42.63
79692;BME280;69158;55.592;37.610;2023-04-25T02:09:37;99091.63;;;13.11;43.44
79692;BME280;69158;55.592;37.610;2023-04-25T02:12:23;99078.25;;;13.06;43.40
79692;BME280;69158;55.592;37.610;2023-04-25T02:15:11;99092.78;;;13.22;43.04
79692;BME280;69158;55.592;37.610;2023-04-25T02:17:58;99079.25;;;12.99;43.63
79692;BME280;69158;55.592;37.610;2023-04-25T02:20:45;99074.03;;;12.92;43.95
79692;BME280;69158;55.592;37.610;2023-04-25T02:23:31;99076.44;;;13.00;43.44
79692;BME280;69158;55.592;37.610;2023-04-25T02:26:17;99087.13;;;13.18;43.50
79692;BME280;69158;55.592;37.610;2023-04-25T02:29:03;99081.69;;;13.07;43.41
79692;BME280;69158;55.592;37.610;2023-04-25T02:31:49;99071.34;;;12.99;44.11
79692;BME280;69158;55.592;37.610;2023-04-25T02:34:35;99084.75;;;12.97;44.67
79692;BME280;69158;55.592;37.610;2023-04-25T02:37:22;99073.03;;;12.93;44.60
79692;BME280;69158;55.592;37.610;2023-04-25T02:40:08;99082.09;;;13.10;44.45
79692;BME280;69158;55.592;37.610;2023-04-25T02:42:54;99095.19;;;13.24;44.23
79692;BME280;69158;55.592;37.610;2023-04-25T02:45:40;99096.25;;;13.09;45.05
79692;BME280;69158;55.592;37.610;2023-04-25T02:48:26;99079.88;;;13.01;44.96
79692;BME280;69158;55.592;37.610;2023-04-25T02:51:12;99078.09;;;12.88;45.25
79692;BME280;69158;55.592;37.610;2023-04-25T02:53:59;99063.75;;;12.84;45.45
79692;BME280;69158;55.592;37.610;2023-04-25T02:56:45;99073.22;;;12.92;45.37
79692;BME280;69158;55.592;37.610;2023-04-25T02:59:31;99077.91;;;12.83;46.68
79692;BME280;69158;55.592;37.610;2023-04-25T03:02:17;99088.03;;;12.86;47.03
79692;BME280;69158;55.592;37.610;2023-04-25T03:05:03;99090.84;;;12.91;47.00
79692;BME280;69158;55.592;37.610;2023-04-25T03:07:50;99100.00;;;12.89;46.89
79692;BME280;69158;55.592;37.610;2023-04-25T03:10:36;99092.97;;;12.69;47.38
79692;BME280;69158;55.592;37.610;2023-04-25T03:13:23;99102.31;;;12.52;48.32
79692;BME280;69158;55.592;37.610;2023-04-25T03:16:11;99105.63;;;12.28;48.87
79692;BME280;69158;55.592;37.610;2023-04-25T03:18:57;99090.25;;;12.25;49.26
79692;BME280;69158;55.592;37.610;2023-04-25T03:21:43;99108.84;;;12.37;48.90
79692;BME280;69158;55.592;37.610;2023-04-25T03:24:29;99090.84;;;12.27;48.97
79692;BME280;69158;55.592;37.610;2023-04-25T03:27:15;99105.44;;;12.30;49.16
79692;BME280;69158;55.592;37.610;2023-04-25T03:30:02;99108.03;;;12.23;49.84
79692;BME280;69158;55.592;37.610;2023-04-25T03:32:49;99079.72;;;12.05;49.93
79692;BME280;69158;55.592;37.610;2023-04-25T03:35:35;99108.47;;;12.20;50.50
79692;BME280;69158;55.592;37.610;2023-04-25T03:38:21;99108.06;;;12.03;51.25
79692;BME280;69158;55.592;37.610;2023-04-25T03:41:08;99103.00;;;12.02;50.88
79692;BME280;69158;55.592;37.610;2023-04-25T03:43:53;99095.72;;;12.10;50.91
79692;BME280;69158;55.592;37.610;2023-04-25T03:46:39;99108.69;;;12.12;50.99
79692;BME280;69158;55.592;37.610;2023-04-25T03:49:26;99113.50;;;12.08;51.21
79692;BME280;69158;55.592;37.610;2023-04-25T03:52:11;99107.03;;;12.17;50.94
79692;BME280;69158;55.592;37.610;2023-04-25T03:54:57;99105.00;;;12.26;50.88
79692;BME280;69158;55.592;37.610;2023-04-25T03:57:52;99086.38;;;12.27;50.14
79692;BME280;69158;55.592;37.610;2023-04-25T04:00:38;99063.50;;;12.21;50.99
79692;BME280;69158;55.592;37.610;2023-04-25T04:03:24;99106.97;;;12.57;50.24
79692;BME280;69158;55.592;37.610;2023-04-25T04:06:11;99092.59;;;12.53;50.33
79692;BME280;69158;55.592;37.610;2023-04-25T04:08:58;99114.41;;;12.73;49.80
79692;BME280;69158;55.592;37.610;2023-04-25T04:11:44;99110.38;;;12.70;49.92
79692;BME280;69158;55.592;37.610;2023-04-25T04:14:30;99108.72;;;12.83;49.57
79692;BME280;69158;55.592;37.610;2023-04-25T04:17:16;99080.06;;;12.55;49.85
79692;BME280;69158;55.592;37.610;2023-04-25T04:20:02;99109.72;;;12.82;49.74
79692;BME280;69158;55.592;37.610;2023-04-25T04:22:49;99114.16;;;12.88;49.47
79692;BME280;69158;55.592;37.610;2023-04-25T04:25:35;99090.91;;;12.85;49.18
79692;BME280;69158;55.592;37.610;2023-04-25T04:28:21;99091.19;;;13.14;48.73
79692;BME280;69158;55.592;37.610;2023-04-25T04:31:07;99096.41;;;13.28;48.44
79692;BME280;69158;55.592;37.610;2023-04-25T04:33:54;99084.03;;;13.28;48.41
79692;BME280;69158;55.592;37.610;2023-04-25T04:36:40;99095.06;;;13.43;48.63
79692;BME280;69158;55.592;37.610;2023-04-25T04:39:27;99079.22;;;13.50;47.91
79692;BME280;69158;55.592;37.610;2023-04-25T04:42:13;99108.16;;;13.63;48.31
79692;BME280;69158;55.592;37.610;2023-04-25T04:44:59;99091.38;;;13.51;48.37
79692;BME280;69158;55.592;37.610;2023-04-25T04:47:47;99086.31;;;13.49;48.62
79692;BME280;69158;55.592;37.610;2023-04-25T04:50:35;99105.44;;;13.70;48.20
79692;BME280;69158;55.592;37.610;2023-04-25T04:53:21;99078.72;;;13.59;48.08
79692;BME280;69158;55.592;37.610;2023-04-25T04:56:07;99064.72;;;13.34;48.62
79692;BME280;69158;55.592;37.610;2023-04-25T04:58:52;99098.94;;;13.72;47.94
79692;BME280;69158;55.592;37.610;2023-04-25T05:01:40;99099.25;;;14.07;47.10
79692;BME280;69158;55.592;37.610;2023-04-25T05:04:26;99082.03;;;14.04;47.06
79692;BME280;69158;55.592;37.610;2023-04-25T05:07:12;99083.28;;;14.02;47.33
79692;BME280;69158;55.592;37.610;2023-04-25T05:09:58;99073.22;;;13.92;47.61
79692;BME280;69158;55.592;37.610;2023-04-25T05:12:44;99076.31;;;14.32;46.34
79692;BME280;69158;55.592;37.610;2023-04-25T05:15:30;99091.53;;;14.55;46.01
79692;BME280;69158;55.592;37.610;2023-04-25T05:18:16;99091.53;;;14.55;46.13
79692;BME280;69158;55.592;37.610;2023-04-25T05:21:02;99075.25;;;14.58;45.26
79692;BME280;69158;55.592;37.610;2023-04-25T05:23:48;99077.34;;;14.68;45.09
79692;BME280;69158;55.592;37.610;2023-04-25T05:26:37;99092.69;;;14.77;44.73
79692;BME280;69158;55.592;37.610;2023-04-25T05:29:24;99054.78;;;14.53;45.60
79692;BME280;69158;55.592;37.610;2023-04-25T05:32:10;99062.47;;;14.73;45.15
79692;BME280;69158;55.592;37.610;2023-04-25T05:35:02;99080.44;;;14.83;45.14
79692;BME280;69158;55.592;37.610;2023-04-25T05:37:49;99056.75;;;15.06;44.22
79692;BME280;69158;55.592;37.610;2023-04-25T05:40:36;99077.41;;;15.27;43.74
79692;BME280;69158;55.592;37.610;2023-04-25T05:43:23;99080.28;;;15.56;42.94
79692;BME280;69158;55.592;37.610;2023-04-25T05:46:11;99067.22;;;15.31;43.25
79692;BME280;69158;55.592;37.610;2023-04-25T05:48:57;99079.13;;;15.52;43.46
79692;BME280;69158;55.592;37.610;2023-04-25T05:51:52;99022.44;;;15.59;42.45
79692;BME280;69158;55.592;37.610;2023-04-25T05:54:47;99046.38;;;15.53;42.69
79692;BME280;69158;55.592;37.610;2023-04-25T05:57:33;99058.13;;;15.68;43.32
79692;BME280;69158;55.592;37.610;2023-04-25T06:00:19;99072.88;;;15.87;42.60
79692;BME280;69158;55.592;37.610;2023-04-25T06:03:08;99061.75;;;16.09;41.85
79692;BME280;69158;55.592;37.610;2023-04-25T06:05:55;98999.13;;;15.91;41.58
79692;BME280;69158;55.592;37.610;2023-04-25T06:08:41;99004.19;;;16.67;40.48
79692;BME280;69158;55.592;37.610;2023-04-25T06:11:27;99043.56;;;18.32;37.07
79692;BME280;69158;55.592;37.610;2023-04-25T06:14:13;99029.81;;;19.54;35.06
79692;BME280;69158;55.592;37.610;2023-04-25T06:16:59;99032.16;;;20.76;31.64
79692;BME280;69158;55.592;37.610;2023-04-25T06:19:46;99031.78;;;21.76;30.92
79692;BME280;69158;55.592;37.610;2023-04-25T06:22:32;99024.75;;;22.40;29.01
79692;BME280;69158;55.592;37.610;2023-04-25T06:25:18;99015.03;;;22.70;28.02
79692;BME280;69158;55.592;37.610;2023-04-25T06:28:04;99020.28;;;23.34;27.50
79692;BME280;69158;55.592;37.610;2023-04-25T06:30:50;99009.03;;;24.47;26.03
79692;BME280;69158;55.592;37.610;2023-04-25T06:33:36;99008.72;;;24.96;24.53
79692;BME280;69158;55.592;37.610;2023-04-25T06:36:26;98955.13;;;24.25;22.68
79692;BME280;69158;55.592;37.610;2023-04-25T06:39:13;99019.22;;;24.50;23.22
79692;BME280;69158;55.592;37.610;2023-04-25T06:41:59;99018.38;;;24.55;23.29
79692;BME280;69158;55.592;37.610;2023-04-25T06:44:45;99018.81;;;25.04;22.46
79692;BME280;69158;55.592;37.610;2023-04-25T06:47:31;99001.72;;;24.76;22.39
79692;BME280;69158;55.592;37.610;2023-04-25T06:50:17;98975.06;;;24.61;22.58
79692;BME280;69158;55.592;37.610;2023-04-25T06:53:03;99014.72;;;25.25;22.35
79692;BME280;69158;55.592;37.610;2023-04-25T06:55:49;99007.13;;;25.46;22.60
79692;BME280;69158;55.592;37.610;2023-04-25T06:58:35;99014.91;;;26.12;21.67
79692;BME280;69158;55.592;37.610;2023-04-25T07:01:21;99016.13;;;26.34;21.86
79692;BME280;69158;55.592;37.610;2023-04-25T07:04:07;99006.25;;;26.56;20.82
79692;BME280;69158;55.592;37.610;2023-04-25T07:06:53;99009.84;;;26.66;20.04
79692;BME280;69158;55.592;37.610;2023-04-25T07:09:39;98999.16;;;26.88;20.31
79692;BME280;69158;55.592;37.610;2023-04-25T07:12:25;99009.31;;;27.27;19.58
79692;BME280;69158;55.592;37.610;2023-04-25T07:15:11;99016.44;;;27.67;19.28
79692;BME280;69158;55.592;37.610;2023-04-25T07:17:57;99017.59;;;27.30;19.84
79692;BME280;69158;55.592;37.610;2023-04-25T07:20:43;98985.19;;;28.06;19.22
79692;BME280;69158;55.592;37.610;2023-04-25T07:23:29;98967.84;;;28.29;18.10
79692;BME280;69158;55.592;37.610;2023-04-25T07:26:15;98994.41;;;28.05;19.18
79692;BME280;69158;55.592;37.610;2023-04-25T07:29:01;98989.75;;;28.27;18.25
79692;BME280;69158;55.592;37.610;2023-04-25T07:31:47;98983.09;;;27.63;18.61
79692;BME280;69158;55.592;37.610;2023-04-25T07:34:33;98997.56;;;26.59;19.69
79692;BME280;69158;55.592;37.610;2023-04-25T07:37:22;99019.00;;;26.10;20.63
79692;BME280;69158;55.592;37.610;2023-04-25T07:42:44;98980.50;;;25.50;21.28
79692;BME280;69158;55.592;37.610;2023-04-25T07:45:30;98997.94;;;25.98;20.92
79692;BME280;69158;55.592;37.610;2023-04-25T07:48:19;99013.56;;;27.05;19.54
79692;BME280;69158;55.592;37.610;2023-04-25T07:51:05;99011.75;;;27.37;19.04
79692;BME280;69158;55.592;37.610;2023-04-25T07:53:51;98973.47;;;27.26;18.95
79692;BME280;69158;55.592;37.610;2023-04-25T07:56:37;99012.69;;;27.77;18.36
79692;BME280;69158;55.592;37.610;2023-04-25T07:59:23;98999.13;;;27.24;18.40
79692;BME280;69158;55.592;37.610;2023-04-25T08:02:09;99015.91;;;26.16;19.51
79692;BME280;69158;55.592;37.610;2023-04-25T08:04:57;99005.84;;;25.62;20.75
79692;BME280;69158;55.592;37.610;2023-04-25T08:07:43;99011.63;;;26.70;20.24
79692;BME280;69158;55.592;37.610;2023-04-25T08:10:29;98999.34;;;26.78;19.79
79692;BME280;69158;55.592;37.610;2023-04-25T08:13:15;98998.94;;;25.89;20.63
79692;BME280;69158;55.592;37.610;2023-04-25T08:16:01;99007.94;;;27.16;19.60
79692;BME280;69158;55.592;37.610;2023-04-25T08:18:49;98988.28;;;27.15;20.26
79692;BME280;69158;55.592;37.610;2023-04-25T08:21:36;98977.13;;;27.75;19.17
79692;BME280;69158;55.592;37.610;2023-04-25T08:24:22;98983.63;;;28.53;17.45
79692;BME280;69158;55.592;37.610;2023-04-25T08:27:08;98958.41;;;27.25;19.41
79692;BME280;69158;55.592;37.610;2023-04-25T08:29:55;98974.91;;;27.77;19.18
79692;BME280;69158;55.592;37.610;2023-04-25T08:32:41;98959.09;;;28.80;17.67
79692;BME280;69158;55.592;37.610;2023-04-25T08:35:27;98969.03;;;29.65;17.11
79692;BME280;69158;55.592;37.610;2023-04-25T08:38:13;98983.91;;;28.34;18.02
79692;BME280;69158;55.592;37.610;2023-04-25T08:41:03;98975.34;;;25.35;21.26
79692;BME280;69158;55.592;37.610;2023-04-25T08:43:53;98979.50;;;24.71;22.41
79692;BME280;69158;55.592;37.610;2023-04-25T08:46:46;98981.16;;;24.24;22.63
79692;BME280;69158;55.592;37.610;2023-04-25T08:49:36;98942.38;;;23.88;22.72
79692;BME280;69158;55.592;37.610;2023-04-25T08:52:23;98959.94;;;24.28;23.10
79692;BME280;69158;55.592;37.610;2023-04-25T08:55:13;98971.13;;;25.15;22.05
79692;BME280;69158;55.592;37.610;2023-04-25T08:58:16;98968.84;;;25.87;20.21
79692;BME280;69158;55.592;37.610;2023-04-25T09:01:13;98964.47;;;26.04;20.73
79692;BME280;69158;55.592;37.610;2023-04-25T09:03:59;98946.38;;;27.31;19.29
79692;BME280;69158;55.592;37.610;2023-04-25T09:06:46;98937.19;;;27.55;18.94
79692;BME280;69158;55.592;37.610;2023-04-25T09:09:34;98956.00;;;28.08;18.74
79692;BME280;69158;55.592;37.610;2023-04-25T09:12:21;98946.19;;;27.05;19.53
79692;BME280;69158;55.592;37.610;2023-04-25T09:15:10;98931.69;;;26.02;19.41
79692;BME280;69158;55.592;37.610;2023-04-25T09:17:58;98946.53;;;26.54;18.61
79692;BME280;69158;55.592;37.610;2023-04-25T09:20:45;98935.38;;;26.47;18.43
79692;BME280;69158;55.592;37.610;2023-04-25T09:23:39;98941.28;;;26.85;17.60
79692;BME280;69158;55.592;37.610;2023-04-25T09:26:25;98944.47;;;26.24;18.58
79692;BME280;69158;55.592;37.610;2023-04-25T09:29:11;98932.69;;;27.72;17.35
79692;BME280;69158;55.592;37.610;2023-04-25T09:32:21;98930.25;;;29.99;15.20
79692;BME280;69158;55.592;37.610;2023-04-25T09:35:07;98923.44;;;31.47;14.37
79692;BME280;69158;55.592;37.610;2023-04-25T09:37:53;98915.16;;;31.31;13.91
79692;BME280;69158;55.592;37.610;2023-04-25T09:40:44;98909.00;;;32.52;12.98
79692;BME280;69158;55.592;37.610;2023-04-25T09:43:31;98903.50;;;32.12;13.20
79692;BME280;69158;55.592;37.610;2023-04-25T09:46:17;98898.41;;;31.74;13.40
79692;BME280;69158;55.592;37.610;2023-04-25T09:49:07;98912.19;;;29.74;14.69
79692;BME280;69158;55.592;37.610;2023-04-25T09:51:56;98905.22;;;27.70;16.86
79692;BME280;69158;55.592;37.610;2023-04-25T09:54:44;98885.94;;;25.15;19.61
79692;BME280;69158;55.592;37.610;2023-04-25T09:57:31;98914.56;;;25.06;19.66
79692;BME280;69158;55.592;37.610;2023-04-25T10:00:18;98911.00;;;25.11;20.22
79692;BME280;69158;55.592;37.610;2023-04-25T10:03:05;98920.81;;;26.07;18.54
79692;BME280;69158;55.592;37.610;2023-04-25T10:05:51;98914.72;;;26.92;18.14
79692;BME280;69158;55.592;37.610;2023-04-25T10:08:38;98901.53;;;27.97;16.88
79692;BME280;69158;55.592;37.610;2023-04-25T10:11:24;98878.25;;;28.10;16.75
79692;BME280;69158;55.592;37.610;2023-04-25T10:14:12;98906.13;;;27.96;17.02
79692;BME280;69158;55.592;37.610;2023-04-25T10:16:59;98900.53;;;29.27;15.80
79692;BME280;69158;55.592;37.610;2023-04-25T10:19:48;98873.13;;;29.92;15.09
79692;BME280;69158;55.592;37.610;2023-04-25T10:22:38;98893.28;;;30.33;15.17
79692;BME280;69158;55.592;37.610;2023-04-25T10:25:26;98890.69;;;30.15;15.13
79692;BME280;69158;55.592;37.610;2023-04-25T10:28:13;98856.97;;;30.75;14.41
79692;BME280;69158;55.592;37.610;2023-04-25T10:31:01;98884.28;;;31.24;14.36
79692;BME280;69158;55.592;37.610;2023-04-25T10:33:48;98852.94;;;31.14;13.50
79692;BME280;69158;55.592;37.610;2023-04-25T10:36:34;98874.50;;;28.45;16.27
79692;BME280;69158;55.592;37.610;2023-04-25T10:39:29;98869.31;;;28.09;16.46
79692;BME280;69158;55.592;37.610;2023-04-25T10:42:15;98866.59;;;26.41;18.15
79692;BME280;69158;55.592;37.610;2023-04-25T10:45:05;98851.31;;;26.01;18.87
79692;BME280;69158;55.592;37.610;2023-04-25T10:47:52;98853.97;;;28.18;16.54
79692;BME280;69158;55.592;37.610;2023-04-25T10:50:39;98859.75;;;28.68;16.76
79692;BME280;69158;55.592;37.610;2023-04-25T10:53:32;98857.72;;;29.46;16.20
79692;BME280;69158;55.592;37.610;2023-04-25T10:56:22;98823.66;;;29.83;14.77
79692;BME280;69158;55.592;37.610;2023-04-25T10:59:14;98836.84;;;30.14;15.17
79692;BME280;69158;55.592;37.610;2023-04-25T11:02:11;98847.91;;;29.24;15.25
79692;BME280;69158;55.592;37.610;2023-04-25T11:04:59;98847.78;;;27.61;17.20
79692;BME280;69158;55.592;37.610;2023-04-25T11:07:52;98845.06;;;27.52;16.86
79692;BME280;69158;55.592;37.610;2023-04-25T11:10:39;98841.38;;;27.18;16.85
79692;BME280;69158;55.592;37.610;2023-04-25T11:13:29;98840.47;;;26.42;18.27
79692;BME280;69158;55.592;37.610;2023-04-25T11:16:17;98822.00;;;26.13;17.88
79692;BME280;69158;55.592;37.610;2023-04-25T11:19:09;98816.25;;;26.42;18.29
79692;BME280;69158;55.592;37.610;2023-04-25T11:21:56;98812.22;;;27.28;17.27
79692;BME280;69158;55.592;37.610;2023-04-25T11:24:42;98814.38;;;27.88;16.60
79692;BME280;69158;55.592;37.610;2023-04-25T11:27:28;98785.78;;;27.30;16.28
79692;BME280;69158;55.592;37.610;2023-04-25T11:30:15;98814.06;;;26.66;17.26
79692;BME280;69158;55.592;37.610;2023-04-25T11:33:01;98780.16;;;26.07;17.79
79692;BME280;69158;55.592;37.610;2023-04-25T11:35:49;98782.38;;;25.50;18.08
79692;BME280;69158;55.592;37.610;2023-04-25T11:38:35;98812.25;;;25.49;18.21
79692;BME280;69158;55.592;37.610;2023-04-25T11:41:21;98803.13;;;25.63;18.79
79692;BME280;69158;55.592;37.610;2023-04-25T11:44:07;98786.19;;;24.38;20.39
79692;BME280;69158;55.592;37.610;2023-04-25T11:46:53;98794.41;;;24.28;20.47
79692;BME280;69158;55.592;37.610;2023-04-25T11:49:41;98774.38;;;24.02;20.87
79692;BME280;69158;55.592;37.610;2023-04-25T11:52:44;98793.66;;;24.04;20.85
79692;BME280;69158;55.592;37.610;2023-04-25T11:55:30;98781.44;;;23.74;20.93
79692;BME280;69158;55.592;37.610;2023-04-25T11:58:16;98785.19;;;23.55;21.31
79692;BME280;69158;55.592;37.610;2023-04-25T12:01:02;98780.34;;;22.75;21.67
79692;BME280;69158;55.592;37.610;2023-04-25T12:03:50;98758.22;;;22.93;21.78
79692;BME280;69158;55.592;37.610;2023-04-25T12:06:37;98778.44;;;23.04;22.12
79692;BME280;69158;55.592;37.610;2023-04-25T12:09:33;98746.13;;;22.67;22.49
79692;BME280;69158;55.592;37.610;2023-04-25T12:12:19;98751.09;;;22.50;23.00
79692;BME280;69158;55.592;37.610;2023-04-25T12:18:01;98751.63;;;22.52;22.98
79692;BME280;69158;55.592;37.610;2023-04-25T12:20:48;98754.22;;;22.57;23.05
79692;BME280;69158;55.592;37.610;2023-04-25T12:23:34;98754.03;;;22.14;23.66
79692;BME280;69158;55.592;37.610;2023-04-25T12:26:20;98735.53;;;22.18;23.96
79692;BME280;69158;55.592;37.610;2023-04-25T12:29:19;98738.00;;;22.48;23.95
79692;BME280;69158;55.592;37.610;2023-04-25T12:32:05;98709.28;;;22.30;24.15
79692;BME280;69158;55.592;37.610;2023-04-25T12:34:53;98729.47;;;22.07;24.36
79692;BME280;69158;55.592;37.610;2023-04-25T12:37:39;98733.34;;;21.81;25.29
79692;BME280;69158;55.592;37.610;2023-04-25T12:40:25;98730.25;;;21.64;25.25
79692;BME280;69158;55.592;37.610;2023-04-25T12:43:11;98709.50;;;21.46;25.69
79692;BME280;69158;55.592;37.610;2023-04-25T12:45:57;98713.53;;;21.38;25.48
79692;BME280;69158;55.592;37.610;2023-04-25T12:48:43;98703.13;;;21.37;26.00
79692;BME280;69158;55.592;37.610;2023-04-25T12:51:29;98681.19;;;21.45;25.79
79692;BME280;69158;55.592;37.610;2023-04-25T12:54:15;98703.53;;;22.13;24.70
79692;BME280;69158;55.592;37.610;2023-04-25T12:57:01;98699.25;;;23.03;23.74
79692;BME280;69158;55.592;37.610;2023-04-25T12:59:48;98703.13;;;23.77;22.76
79692;BME280;69158;55.592;37.610;2023-04-25T13:02:34;98690.47;;;23.83;22.27
79692;BME280;69158;55.592;37.610;2023-04-25T13:05:21;98683.00;;;23.99;21.86
79692;BME280;69158;55.592;37.610;2023-04-25T13:08:07;98651.34;;;23.44;22.61
79692;BME280;69158;55.592;37.610;2023-04-25T13:10:53;98667.72;;;22.95;23.32
79692;BME280;69158;55.592;37.610;2023-04-25T13:13:39;98688.50;;;22.51;24.18
79692;BME280;69158;55.592;37.610;2023-04-25T13:16:25;98678.66;;;21.73;25.83
79692;BME280;69158;55.592;37.610;2023-04-25T13:19:11;98672.75;;;21.71;25.91
79692;BME280;69158;55.592;37.610;2023-04-25T13:22:00;98651.69;;;21.16;26.26
79692;BME280;69158;55.592;37.610;2023-04-25T13:24:49;98655.75;;;21.57;25.96
79692;BME280;69158;55.592;37.610;2023-04-25T13:27:36;98670.41;;;22.09;25.58
79692;BME280;69158;55.592;37.610;2023-04-25T13:30:23;98664.44;;;22.51;25.06
79692;BME280;69158;55.592;37.610;2023-04-25T13:33:09;98663.50;;;23.13;24.45
79692;BME280;69158;55.592;37.610;2023-04-25T13:35:56;98659.97;;;23.98;23.24
79692;BME280;69158;55.592;37.610;2023-04-25T13:38:42;98662.94;;;23.77;23.10
79692;BME280;69158;55.592;37.610;2023-04-25T13:41:30;98648.59;;;23.87;22.93
79692;BME280;69158;55.592;37.610;2023-04-25T13:44:17;98649.44;;;24.01;23.08
79692;BME280;69158;55.592;37.610;2023-04-25T13:47:03;98642.22;;;24.20;23.04
79692;BME280;69158;55.592;37.610;2023-04-25T13:49:49;98630.41;;;24.35;22.71
79692;BME280;69158;55.592;37.610;2023-04-25T13:52:35;98610.88;;;24.62;21.98
79692;BME280;69158;55.592;37.610;2023-04-25T13:55:21;98623.66;;;25.33;20.69
79692;BME280;69158;55.592;37.610;2023-04-25T13:58:09;98627.34;;;25.37;20.03
79692;BME280;69158;55.592;37.610;2023-04-25T14:00:57;98587.59;;;25.12;20.58
79692;BME280;69158;55.592;37.610;2023-04-25T14:03:44;98609.13;;;25.34;20.44
79692;BME280;69158;55.592;37.610;2023-04-25T14:06:37;98594.47;;;25.04;19.98
79692;BME280;69158;55.592;37.610;2023-04-25T14:09:25;98607.38;;;24.61;20.93
79692;BME280;69158;55.592;37.610;2023-04-25T14:12:19;98572.41;;;24.53;20.46
79692;BME280;69158;55.592;37.610;2023-04-25T14:15:06;98591.25;;;24.34;21.00
79692;BME280;69158;55.592;37.610;2023-04-25T14:17:52;98582.44;;;23.50;22.05
79692;BME280;69158;55.592;37.610;2023-04-25T14:20:38;98576.28;;;22.12;23.86
79692;BME280;69158;55.592;37.610;2023-04-25T14:23:27;98550.84;;;21.52;24.53
79692;BME280;69158;55.592;37.610;2023-04-25T14:26:13;98587.06;;;21.24;25.18
79692;BME280;69158;55.592;37.610;2023-04-25T14:28:59;98588.00;;;20.89;25.93
79692;BME280;69158;55.592;37.610;2023-04-25T14:31:46;98563.38;;;20.43;26.26
79692;BME280;69158;55.592;37.610;2023-04-25T14:34:31;98553.81;;;20.17;26.40
79692;BME280;69158;55.592;37.610;2023-04-25T14:37:17;98549.81;;;20.09;26.50
79692;BME280;69158;55.592;37.610;2023-04-25T14:40:04;98579.34;;;20.28;26.41